Aérodrome :
LOGIN :

S'inscrire | Disclaimer

   EN    FR    IT 

 










Légende :    VFR   VFR Marginal   IFR   IFR Intensif   IFR Très Intensif
Visi : 
Plafond : 
>= 8 km
>= 3000ft
5 à 8 km
1000 à 3000 ft
1500m à 5 km
500 à 1000 ft
800 à 1500m
200 à 500 ft
< 800m
< 200 ft
Symboles :   Orages  Brouillard  Fortes neiges  Fortes précipitations  Vent > 20 kt
SIGMETs :   Divers  Orages  Givrage  Turbulence  Onde Orograph.  Cendres Volcan.






- Altitude de l'aérodrome : 458 ft


LFSI - St-Dizier

DERNIER METAR :
  • 220100Z AUTO 00000KT 4400 BR NSC M05/M06 Q1036

METARs EXPIRÉS :
  • 220030Z AUTO 00000KT 1600 0800 R11/1100U BCFG NSC M04/M04 Q1036
  • 220000Z AUTO 00000KT 4400 1000 R11/1200D BR NSC M04/M04 Q1036
  • 212330Z AUTO 00000KT 2500 0900 R11/1100D BCFG NSC M04/M05 Q1037
  • 212300Z AUTO 00000KT 0900 0450 R11/0500D FZFG NSC M04/M04 Q1037
  • 212230Z AUTO 18001KT 4200 BR NSC M03/M04 Q1036

TAF TAF LFSI
Valide du 21 à 21h jusqu'au 22 à 21h UTC


212000Z 2121/2221 VRB02KT CAVOK
TEMPO 2203/2208 1500 BR



MET'MAP, la Météo Aéronautique d'un coup d'oeil ! - Copyright ORBIFLY Décembre 2007 - Disclaimer

ORBIFLY MET'MAP TEAM :

Programmation & Développement : Alexandra Zaïnal
Sur une idée originale de : Baudouin d'Aumeries
Assistance à la programmation : Marc-Olivier Méhu
Soutien technique & logistique : Manuel Goepfert

Contact : metmap@orbifly.com




SOURCES & CREDITS :

   NOAA